sensor_id;sensor_type;location;lat;lon;timestamp;temperature;humidity
37050;DHT22;22958;51.232;6.826;2023-03-01T00:00:12;1.00;99.90
37050;DHT22;22958;51.232;6.826;2023-03-01T00:02:38;1.00;99.90
37050;DHT22;22958;51.232;6.826;2023-03-01T00:05:04;1.00;99.90
37050;DHT22;22958;51.232;6.826;2023-03-01T00:07:30;1.10;99.90
37050;DHT22;22958;51.232;6.826;2023-03-01T00:09:55;1.20;99.90
37050;DHT22;22958;51.232;6.826;2023-03-01T00:12:21;1.10;99.90
37050;DHT22;22958;51.232;6.826;2023-03-01T00:14:46;1.10;99.90
37050;DHT22;22958;51.232;6.826;2023-03-01T00:17:12;1.00;99.90
37050;DHT22;22958;51.232;6.826;2023-03-01T00:19:37;0.90;99.90
37050;DHT22;22958;51.232;6.826;2023-03-01T00:22:03;0.90;99.90
37050;DHT22;22958;51.232;6.826;2023-03-01T00:24:28;1.00;99.90
37050;DHT22;22958;51.232;6.826;2023-03-01T00:26:54;0.90;99.90
37050;DHT22;22958;51.232;6.826;2023-03-01T00:29:24;0.90;99.90
37050;DHT22;22958;51.232;6.826;2023-03-01T00:31:50;0.90;99.90
37050;DHT22;22958;51.232;6.826;2023-03-01T00:34:16;0.90;99.90
37050;DHT22;22958;51.232;6.826;2023-03-01T00:36:41;0.90;99.90
37050;DHT22;22958;51.232;6.826;2023-03-01T00:39:11;0.80;99.90
37050;DHT22;22958;51.232;6.826;2023-03-01T00:41:37;0.80;99.90
37050;DHT22;22958;51.232;6.826;2023-03-01T00:44:03;0.70;99.90
37050;DHT22;22958;51.232;6.826;2023-03-01T00:46:28;0.60;99.90
37050;DHT22;22958;51.232;6.826;2023-03-01T00:48:55;0.60;99.90
37050;DHT22;22958;51.232;6.826;2023-03-01T00:51:24;0.50;99.90
37050;DHT22;22958;51.232;6.826;2023-03-01T00:53:51;0.40;99.90
37050;DHT22;22958;51.232;6.826;2023-03-01T00:56:17;0.30;99.90
37050;DHT22;22958;51.232;6.826;2023-03-01T00:58:43;0.20;99.90
37050;DHT22;22958;51.232;6.826;2023-03-01T01:01:20;0.20;99.90
37050;DHT22;22958;51.232;6.826;2023-03-01T01:03:51;0.10;99.90
37050;DHT22;22958;51.232;6.826;2023-03-01T01:06:19;0.20;99.90
37050;DHT22;22958;51.232;6.826;2023-03-01T01:08:45;0.20;99.90
37050;DHT22;22958;51.232;6.826;2023-03-01T01:11:11;0.20;99.90
37050;DHT22;22958;51.232;6.826;2023-03-01T01:13:38;0.20;99.90
37050;DHT22;22958;51.232;6.826;2023-03-01T01:16:03;0.20;99.90
37050;DHT22;22958;51.232;6.826;2023-03-01T01:18:29;0.20;99.90
37050;DHT22;22958;51.232;6.826;2023-03-01T01:20:55;0.30;99.90
37050;DHT22;22958;51.232;6.826;2023-03-01T01:23:20;0.30;99.90
37050;DHT22;22958;51.232;6.826;2023-03-01T01:25:46;0.30;99.90
37050;DHT22;22958;51.232;6.826;2023-03-01T01:28:11;0.20;99.90
37050;DHT22;22958;51.232;6.826;2023-03-01T01:30:37;0.20;99.90
37050;DHT22;22958;51.232;6.826;2023-03-01T01:33:02;0.20;99.90
37050;DHT22;22958;51.232;6.826;2023-03-01T01:35:28;0.00;99.90
37050;DHT22;22958;51.232;6.826;2023-03-01T01:37:54;-0.10;99.90
37050;DHT22;22958;51.232;6.826;2023-03-01T01:40:19;-0.10;99.90
37050;DHT22;22958;51.232;6.826;2023-03-01T01:42:45;-0.10;99.90
37050;DHT22;22958;51.232;6.826;2023-03-01T01:45:33;-0.20;99.90
37050;DHT22;22958;51.232;6.826;2023-03-01T01:48:04;-0.20;99.90
37050;DHT22;22958;51.232;6.826;2023-03-01T01:50:33;-0.10;99.90
37050;DHT22;22958;51.232;6.826;2023-03-01T01:53:09;-0.10;99.90
37050;DHT22;22958;51.232;6.826;2023-03-01T01:55:36;-0.10;99.90
37050;DHT22;22958;51.232;6.826;2023-03-01T01:58:05;-0.10;99.90
37050;DHT22;22958;51.232;6.826;2023-03-01T02:00:33;-0.20;99.90
37050;DHT22;22958;51.232;6.826;2023-03-01T02:03:08;-0.30;99.90
37050;DHT22;22958;51.232;6.826;2023-03-01T02:05:57;-0.40;99.90
37050;DHT22;22958;51.232;6.826;2023-03-01T02:08:27;-0.40;99.90
37050;DHT22;22958;51.232;6.826;2023-03-01T02:10:54;-0.40;99.90
37050;DHT22;22958;51.232;6.826;2023-03-01T02:13:21;-0.50;99.90
37050;DHT22;22958;51.232;6.826;2023-03-01T02:15:46;-0.50;99.90
37050;DHT22;22958;51.232;6.826;2023-03-01T02:18:15;-0.60;99.90
37050;DHT22;22958;51.232;6.826;2023-03-01T02:20:56;-0.60;99.90
37050;DHT22;22958;51.232;6.826;2023-03-01T02:23:23;-0.70;99.90
37050;DHT22;22958;51.232;6.826;2023-03-01T02:26:00;-0.60;99.90
37050;DHT22;22958;51.232;6.826;2023-03-01T02:28:37;-0.60;99.90
37050;DHT22;22958;51.232;6.826;2023-03-01T02:31:07;-0.60;99.90
37050;DHT22;22958;51.232;6.826;2023-03-01T02:33:53;-0.60;99.90
37050;DHT22;22958;51.232;6.826;2023-03-01T02:36:19;-0.50;99.90
37050;DHT22;22958;51.232;6.826;2023-03-01T02:38:46;-0.40;99.90
37050;DHT22;22958;51.232;6.826;2023-03-01T02:41:15;-0.40;99.90
37050;DHT22;22958;51.232;6.826;2023-03-01T02:43:41;-0.40;99.90
37050;DHT22;22958;51.232;6.826;2023-03-01T02:46:18;-0.40;99.90
37050;DHT22;22958;51.232;6.826;2023-03-01T02:48:47;-0.30;99.90
37050;DHT22;22958;51.232;6.826;2023-03-01T02:51:27;-0.40;99.90
37050;DHT22;22958;51.232;6.826;2023-03-01T02:54:15;-0.40;99.90
37050;DHT22;22958;51.232;6.826;2023-03-01T02:56:44;-0.60;99.90
37050;DHT22;22958;51.232;6.826;2023-03-01T02:59:13;-0.70;99.90
37050;DHT22;22958;51.232;6.826;2023-03-01T03:01:39;-0.70;99.90
37050;DHT22;22958;51.232;6.826;2023-03-01T03:04:10;-0.80;99.90
37050;DHT22;22958;51.232;6.826;2023-03-01T03:06:36;-0.90;99.90
37050;DHT22;22958;51.232;6.826;2023-03-01T03:09:03;-0.90;99.90
37050;DHT22;22958;51.232;6.826;2023-03-01T03:11:29;-1.00;99.90
37050;DHT22;22958;51.232;6.826;2023-03-01T03:13:55;-1.00;99.90
37050;DHT22;22958;51.232;6.826;2023-03-01T03:16:21;-1.00;99.90
37050;DHT22;22958;51.232;6.826;2023-03-01T03:18:47;-0.90;99.90
37050;DHT22;22958;51.232;6.826;2023-03-01T03:21:14;-0.80;99.90
37050;DHT22;22958;51.232;6.826;2023-03-01T03:23:40;-0.80;99.90
37050;DHT22;22958;51.232;6.826;2023-03-01T03:26:05;-0.80;99.90
37050;DHT22;22958;51.232;6.826;2023-03-01T03:28:32;-0.80;99.90
37050;DHT22;22958;51.232;6.826;2023-03-01T03:30:59;-0.90;99.90
37050;DHT22;22958;51.232;6.826;2023-03-01T03:33:31;-0.80;99.90
37050;DHT22;22958;51.232;6.826;2023-03-01T03:35:57;-0.80;99.90
37050;DHT22;22958;51.232;6.826;2023-03-01T03:38:22;-0.70;99.90
37050;DHT22;22958;51.232;6.826;2023-03-01T03:41:08;-0.80;99.90
37050;DHT22;22958;51.232;6.826;2023-03-01T03:43:36;-0.80;99.90
37050;DHT22;22958;51.232;6.826;2023-03-01T03:46:03;-0.80;99.90
37050;DHT22;22958;51.232;6.826;2023-03-01T03:48:33;-0.70;99.90
37050;DHT22;22958;51.232;6.826;2023-03-01T03:50:59;-0.60;99.90
37050;DHT22;22958;51.232;6.826;2023-03-01T03:53:26;-0.70;99.90
37050;DHT22;22958;51.232;6.826;2023-03-01T03:55:52;-0.80;99.90
37050;DHT22;22958;51.232;6.826;2023-03-01T03:58:19;-0.80;99.90
37050;DHT22;22958;51.232;6.826;2023-03-01T04:00:46;-0.80;99.90
37050;DHT22;22958;51.232;6.826;2023-03-01T04:03:14;-0.90;99.90
37050;DHT22;22958;51.232;6.826;2023-03-01T04:05:41;-0.90;99.90
37050;DHT22;22958;51.232;6.826;2023-03-01T04:08:07;-0.80;99.90
37050;DHT22;22958;51.232;6.826;2023-03-01T04:10:36;-0.80;99.90
37050;DHT22;22958;51.232;6.826;2023-03-01T04:13:03;-0.90;99.90
37050;DHT22;22958;51.232;6.826;2023-03-01T04:15:30;-0.80;99.90
37050;DHT22;22958;51.232;6.826;2023-03-01T04:17:56;-0.70;99.90
37050;DHT22;22958;51.232;6.826;2023-03-01T04:20:24;-0.60;99.90
37050;DHT22;22958;51.232;6.826;2023-03-01T04:22:51;-0.70;99.90
37050;DHT22;22958;51.232;6.826;2023-03-01T04:25:17;-0.70;99.90
37050;DHT22;22958;51.232;6.826;2023-03-01T04:27:42;-0.70;99.90
37050;DHT22;22958;51.232;6.826;2023-03-01T04:30:08;-0.80;99.90
37050;DHT22;22958;51.232;6.826;2023-03-01T04:32:34;-0.80;99.90
37050;DHT22;22958;51.232;6.826;2023-03-01T04:35:00;-0.90;99.90
37050;DHT22;22958;51.232;6.826;2023-03-01T04:37:26;-0.90;99.90
37050;DHT22;22958;51.232;6.826;2023-03-01T04:39:51;-0.90;99.90
37050;DHT22;22958;51.232;6.826;2023-03-01T04:42:17;-1.00;99.90
37050;DHT22;22958;51.232;6.826;2023-03-01T04:44:43;-0.90;99.90
37050;DHT22;22958;51.232;6.826;2023-03-01T04:47:09;-0.90;99.90
37050;DHT22;22958;51.232;6.826;2023-03-01T04:49:35;-0.90;99.90
37050;DHT22;22958;51.232;6.826;2023-03-01T04:52:00;-0.90;99.90
37050;DHT22;22958;51.232;6.826;2023-03-01T04:54:30;-0.90;99.90
37050;DHT22;22958;51.232;6.826;2023-03-01T04:56:55;-0.90;99.90
37050;DHT22;22958;51.232;6.826;2023-03-01T04:59:21;-1.00;99.90
37050;DHT22;22958;51.232;6.826;2023-03-01T05:01:51;-1.00;99.90
37050;DHT22;22958;51.232;6.826;2023-03-01T05:04:17;-0.80;99.90
37050;DHT22;22958;51.232;6.826;2023-03-01T05:06:42;-0.80;99.90
37050;DHT22;22958;51.232;6.826;2023-03-01T05:09:08;-0.80;99.90
37050;DHT22;22958;51.232;6.826;2023-03-01T05:11:33;-0.70;99.90
37050;DHT22;22958;51.232;6.826;2023-03-01T05:14:02;-0.70;99.90
37050;DHT22;22958;51.232;6.826;2023-03-01T05:16:27;-0.70;99.90
37050;DHT22;22958;51.232;6.826;2023-03-01T05:18:53;-0.70;99.90
37050;DHT22;22958;51.232;6.826;2023-03-01T05:21:21;-0.70;99.90
37050;DHT22;22958;51.232;6.826;2023-03-01T05:23:46;-0.70;99.90
37050;DHT22;22958;51.232;6.826;2023-03-01T05:26:12;-0.60;99.90
37050;DHT22;22958;51.232;6.826;2023-03-01T05:28:38;-0.70;99.90
37050;DHT22;22958;51.232;6.826;2023-03-01T05:31:05;-0.70;99.90
37050;DHT22;22958;51.232;6.826;2023-03-01T05:33:39;-0.70;99.90
37050;DHT22;22958;51.232;6.826;2023-03-01T05:36:05;-0.60;99.90
37050;DHT22;22958;51.232;6.826;2023-03-01T05:38:31;-0.50;99.90
37050;DHT22;22958;51.232;6.826;2023-03-01T05:40:57;-0.50;99.90
37050;DHT22;22958;51.232;6.826;2023-03-01T05:43:22;-0.50;99.90
37050;DHT22;22958;51.232;6.826;2023-03-01T05:45:48;-0.50;99.90
37050;DHT22;22958;51.232;6.826;2023-03-01T05:48:13;-0.50;99.90
37050;DHT22;22958;51.232;6.826;2023-03-01T05:50:42;-0.40;99.90
37050;DHT22;22958;51.232;6.826;2023-03-01T05:53:17;-0.40;99.90
37050;DHT22;22958;51.232;6.826;2023-03-01T05:55:43;-0.40;99.90
37050;DHT22;22958;51.232;6.826;2023-03-01T05:58:12;-0.40;99.90
37050;DHT22;22958;51.232;6.826;2023-03-01T06:00:39;-0.40;99.90
37050;DHT22;22958;51.232;6.826;2023-03-01T06:03:05;-0.30;99.90
37050;DHT22;22958;51.232;6.826;2023-03-01T06:05:30;-0.40;99.90
37050;DHT22;22958;51.232;6.826;2023-03-01T06:07:59;-0.30;99.90
37050;DHT22;22958;51.232;6.826;2023-03-01T06:10:25;-0.30;99.90
37050;DHT22;22958;51.232;6.826;2023-03-01T06:12:51;-0.20;99.90
37050;DHT22;22958;51.232;6.826;2023-03-01T06:15:16;-0.20;99.90
37050;DHT22;22958;51.232;6.826;2023-03-01T06:17:44;-0.20;99.90
37050;DHT22;22958;51.232;6.826;2023-03-01T06:20:15;-0.20;99.90
37050;DHT22;22958;51.232;6.826;2023-03-01T06:22:42;-0.20;99.90
37050;DHT22;22958;51.232;6.826;2023-03-01T06:25:09;-0.20;99.90
37050;DHT22;22958;51.232;6.826;2023-03-01T06:27:35;-0.20;99.90
37050;DHT22;22958;51.232;6.826;2023-03-01T06:30:02;-0.20;99.90
37050;DHT22;22958;51.232;6.826;2023-03-01T06:32:27;-0.20;99.90
37050;DHT22;22958;51.232;6.826;2023-03-01T06:34:53;-0.30;99.90
37050;DHT22;22958;51.232;6.826;2023-03-01T06:37:18;-0.20;99.90
37050;DHT22;22958;51.232;6.826;2023-03-01T06:39:44;-0.20;99.90
37050;DHT22;22958;51.232;6.826;2023-03-01T06:42:10;-0.20;99.90
37050;DHT22;22958;51.232;6.826;2023-03-01T06:44:36;-0.10;99.90
37050;DHT22;22958;51.232;6.826;2023-03-01T06:47:02;0.40;99.90
37050;DHT22;22958;51.232;6.826;2023-03-01T06:49:28;0.80;99.90
37050;DHT22;22958;51.232;6.826;2023-03-01T06:51:54;0.80;99.90
37050;DHT22;22958;51.232;6.826;2023-03-01T06:54:20;0.60;99.90
37050;DHT22;22958;51.232;6.826;2023-03-01T06:56:48;0.50;99.90
37050;DHT22;22958;51.232;6.826;2023-03-01T06:59:15;0.30;99.90
37050;DHT22;22958;51.232;6.826;2023-03-01T07:01:40;0.30;99.90
37050;DHT22;22958;51.232;6.826;2023-03-01T07:04:06;0.20;99.90
37050;DHT22;22958;51.232;6.826;2023-03-01T07:06:32;0.20;99.90
37050;DHT22;22958;51.232;6.826;2023-03-01T07:08:58;0.20;99.90
37050;DHT22;22958;51.232;6.826;2023-03-01T07:11:23;0.30;99.90
37050;DHT22;22958;51.232;6.826;2023-03-01T07:13:49;0.30;99.90
37050;DHT22;22958;51.232;6.826;2023-03-01T07:16:14;0.40;99.90
37050;DHT22;22958;51.232;6.826;2023-03-01T07:18:40;0.50;99.90
37050;DHT22;22958;51.232;6.826;2023-03-01T07:21:07;0.50;99.90
37050;DHT22;22958;51.232;6.826;2023-03-01T07:23:34;0.60;99.90
37050;DHT22;22958;51.232;6.826;2023-03-01T07:25:59;0.70;99.90
37050;DHT22;22958;51.232;6.826;2023-03-01T07:28:26;0.80;99.90
37050;DHT22;22958;51.232;6.826;2023-03-01T07:30:52;0.80;99.90
37050;DHT22;22958;51.232;6.826;2023-03-01T07:33:17;0.80;99.90
37050;DHT22;22958;51.232;6.826;2023-03-01T07:35:43;0.90;99.90
37050;DHT22;22958;51.232;6.826;2023-03-01T07:38:08;1.00;99.90
37050;DHT22;22958;51.232;6.826;2023-03-01T07:40:34;1.10;99.90
37050;DHT22;22958;51.232;6.826;2023-03-01T07:43:00;1.20;99.90
37050;DHT22;22958;51.232;6.826;2023-03-01T07:45:27;1.30;99.90
37050;DHT22;22958;51.232;6.826;2023-03-01T07:47:53;1.40;99.90
37050;DHT22;22958;51.232;6.826;2023-03-01T07:50:19;1.60;99.90
37050;DHT22;22958;51.232;6.826;2023-03-01T07:52:46;1.60;99.90
37050;DHT22;22958;51.232;6.826;2023-03-01T07:55:12;1.80;99.90
37050;DHT22;22958;51.232;6.826;2023-03-01T07:57:38;1.90;99.90
37050;DHT22;22958;51.232;6.826;2023-03-01T08:00:04;2.00;99.90
37050;DHT22;22958;51.232;6.826;2023-03-01T08:02:31;2.10;99.90
37050;DHT22;22958;51.232;6.826;2023-03-01T08:04:56;2.20;99.90
37050;DHT22;22958;51.232;6.826;2023-03-01T08:07:21;2.30;99.90
37050;DHT22;22958;51.232;6.826;2023-03-01T08:09:47;2.40;99.90
37050;DHT22;22958;51.232;6.826;2023-03-01T08:12:12;2.50;99.90
37050;DHT22;22958;51.232;6.826;2023-03-01T08:14:38;2.50;99.90
37050;DHT22;22958;51.232;6.826;2023-03-01T08:17:03;2.50;99.90
37050;DHT22;22958;51.232;6.826;2023-03-01T08:19:29;2.60;99.90
37050;DHT22;22958;51.232;6.826;2023-03-01T08:21:55;2.70;99.90
37050;DHT22;22958;51.232;6.826;2023-03-01T08:24:23;2.70;99.90
37050;DHT22;22958;51.232;6.826;2023-03-01T08:26:49;2.80;99.90
37050;DHT22;22958;51.232;6.826;2023-03-01T08:29:14;2.90;99.90
37050;DHT22;22958;51.232;6.826;2023-03-01T08:31:40;3.00;99.90
37050;DHT22;22958;51.232;6.826;2023-03-01T08:34:09;3.00;99.90
37050;DHT22;22958;51.232;6.826;2023-03-01T08:36:41;3.00;99.90
37050;DHT22;22958;51.232;6.826;2023-03-01T08:39:08;3.10;99.90
37050;DHT22;22958;51.232;6.826;2023-03-01T08:41:34;3.20;99.90
37050;DHT22;22958;51.232;6.826;2023-03-01T08:44:00;3.20;99.90
37050;DHT22;22958;51.232;6.826;2023-03-01T08:46:30;3.10;99.90
37050;DHT22;22958;51.232;6.826;2023-03-01T08:48:56;3.20;99.90
37050;DHT22;22958;51.232;6.826;2023-03-01T08:51:22;3.40;99.90
37050;DHT22;22958;51.232;6.826;2023-03-01T08:53:49;3.50;99.90
37050;DHT22;22958;51.232;6.826;2023-03-01T08:56:15;3.50;99.90
37050;DHT22;22958;51.232;6.826;2023-03-01T08:58:44;3.60;99.90
37050;DHT22;22958;51.232;6.826;2023-03-01T09:01:11;3.70;99.90
37050;DHT22;22958;51.232;6.826;2023-03-01T09:03:37;3.80;99.90
37050;DHT22;22958;51.232;6.826;2023-03-01T09:06:04;3.90;99.90
37050;DHT22;22958;51.232;6.826;2023-03-01T09:08:31;3.90;99.90
37050;DHT22;22958;51.232;6.826;2023-03-01T09:11:01;4.00;99.90
37050;DHT22;22958;51.232;6.826;2023-03-01T09:13:27;4.10;99.90
37050;DHT22;22958;51.232;6.826;2023-03-01T09:15:56;4.10;99.90
37050;DHT22;22958;51.232;6.826;2023-03-01T09:18:22;4.20;99.90
37050;DHT22;22958;51.232;6.826;2023-03-01T09:20:48;4.30;99.90
37050;DHT22;22958;51.232;6.826;2023-03-01T09:23:13;4.30;99.90
37050;DHT22;22958;51.232;6.826;2023-03-01T09:25:39;4.40;99.90
37050;DHT22;22958;51.232;6.826;2023-03-01T09:28:04;4.40;99.90
37050;DHT22;22958;51.232;6.826;2023-03-01T09:30:30;4.50;99.90
37050;DHT22;22958;51.232;6.826;2023-03-01T09:32:58;4.50;99.90
37050;DHT22;22958;51.232;6.826;2023-03-01T09:35:24;4.60;99.90
37050;DHT22;22958;51.232;6.826;2023-03-01T09:37:51;4.70;99.90
37050;DHT22;22958;51.232;6.826;2023-03-01T09:40:20;4.70;99.90
37050;DHT22;22958;51.232;6.826;2023-03-01T09:45:26;4.80;99.90
37050;DHT22;22958;51.232;6.826;2023-03-01T09:47:52;4.90;99.90
37050;DHT22;22958;51.232;6.826;2023-03-01T09:50:20;5.00;99.90
37050;DHT22;22958;51.232;6.826;2023-03-01T09:52:47;4.90;99.90
37050;DHT22;22958;51.232;6.826;2023-03-01T09:55:20;5.00;99.90
37050;DHT22;22958;51.232;6.826;2023-03-01T09:57:51;5.10;99.90
37050;DHT22;22958;51.232;6.826;2023-03-01T10:02:51;5.30;99.90
37050;DHT22;22958;51.232;6.826;2023-03-01T10:05:31;5.30;99.80
37050;DHT22;22958;51.232;6.826;2023-03-01T10:10:52;5.20;99.90
37050;DHT22;22958;51.232;6.826;2023-03-01T10:13:40;5.10;99.90
37050;DHT22;22958;51.232;6.826;2023-03-01T10:16:34;5.20;99.90
37050;DHT22;22958;51.232;6.826;2023-03-01T10:19:04;5.40;99.70
37050;DHT22;22958;51.232;6.826;2023-03-01T10:21:36;5.50;99.40
37050;DHT22;22958;51.232;6.826;2023-03-01T10:24:16;5.60;99.30
37050;DHT22;22958;51.232;6.826;2023-03-01T10:26:54;5.70;99.40
37050;DHT22;22958;51.232;6.826;2023-03-01T10:30:09;5.60;99.20
37050;DHT22;22958;51.232;6.826;2023-03-01T10:32:14;5.50;99.80
37050;DHT22;22958;51.232;6.826;2023-03-01T10:34:40;5.30;99.60
37050;DHT22;22958;51.232;6.826;2023-03-01T10:37:19;5.30;99.70
37050;DHT22;22958;51.232;6.826;2023-03-01T10:39:57;5.50;99.40
37050;DHT22;22958;51.232;6.826;2023-03-01T10:42:30;5.70;99.30
37050;DHT22;22958;51.232;6.826;2023-03-01T10:44:57;5.80;98.90
37050;DHT22;22958;51.232;6.826;2023-03-01T10:47:25;5.90;98.50
37050;DHT22;22958;51.232;6.826;2023-03-01T10:49:54;6.00;98.40
37050;DHT22;22958;51.232;6.826;2023-03-01T10:52:22;6.20;98.20
37050;DHT22;22958;51.232;6.826;2023-03-01T10:54:54;6.30;97.70
37050;DHT22;22958;51.232;6.826;2023-03-01T10:57:31;6.50;97.30
37050;DHT22;22958;51.232;6.826;2023-03-01T11:03:01;7.00;96.80
37050;DHT22;22958;51.232;6.826;2023-03-01T11:05:27;7.30;96.60
37050;DHT22;22958;51.232;6.826;2023-03-01T11:07:57;8.30;95.10
37050;DHT22;22958;51.232;6.826;2023-03-01T11:10:28;9.60;93.10
37050;DHT22;22958;51.232;6.826;2023-03-01T11:13:06;10.50;91.10
37050;DHT22;22958;51.232;6.826;2023-03-01T11:15:32;12.10;86.30
37050;DHT22;22958;51.232;6.826;2023-03-01T11:17:58;13.10;79.20
37050;DHT22;22958;51.232;6.826;2023-03-01T11:20:35;13.90;74.10
37050;DHT22;22958;51.232;6.826;2023-03-01T11:23:05;15.00;69.30
37050;DHT22;22958;51.232;6.826;2023-03-01T11:25:42;14.40;66.90
37050;DHT22;22958;51.232;6.826;2023-03-01T11:28:14;14.80;63.90
37050;DHT22;22958;51.232;6.826;2023-03-01T11:30:49;16.40;59.50
37050;DHT22;22958;51.232;6.826;2023-03-01T11:35:53;16.70;58.10
37050;DHT22;22958;51.232;6.826;2023-03-01T11:38:26;16.80;57.70
37050;DHT22;22958;51.232;6.826;2023-03-01T11:41:06;16.80;54.80
37050;DHT22;22958;51.232;6.826;2023-03-01T11:43:47;15.80;54.40
37050;DHT22;22958;51.232;6.826;2023-03-01T11:49:25;16.10;53.30
37050;DHT22;22958;51.232;6.826;2023-03-01T11:52:24;16.10;53.90
37050;DHT22;22958;51.232;6.826;2023-03-01T12:00:53;20.10;47.90
37050;DHT22;22958;51.232;6.826;2023-03-01T12:03:51;20.80;45.20
37050;DHT22;22958;51.232;6.826;2023-03-01T12:09:27;18.50;43.10
37050;DHT22;22958;51.232;6.826;2023-03-01T12:20:58;19.60;44.20
37050;DHT22;22958;51.232;6.826;2023-03-01T12:23:51;18.20;43.10
37050;DHT22;22958;51.232;6.826;2023-03-01T12:29:25;19.70;42.80
37050;DHT22;22958;51.232;6.826;2023-03-01T12:32:25;19.00;40.30
37050;DHT22;22958;51.232;6.826;2023-03-01T12:34:59;18.00;41.90
37050;DHT22;22958;51.232;6.826;2023-03-01T12:37:44;20.50;40.60
37050;DHT22;22958;51.232;6.826;2023-03-01T12:40:25;20.70;38.40
37050;DHT22;22958;51.232;6.826;2023-03-01T12:49:02;19.10;41.80
37050;DHT22;22958;51.232;6.826;2023-03-01T12:51:31;19.50;40.70
37050;DHT22;22958;51.232;6.826;2023-03-01T12:54:01;19.60;40.20
37050;DHT22;22958;51.232;6.826;2023-03-01T12:56:30;19.10;40.90
37050;DHT22;22958;51.232;6.826;2023-03-01T13:04:28;19.40;40.40
37050;DHT22;22958;51.232;6.826;2023-03-01T13:13:13;17.60;41.30
37050;DHT22;22958;51.232;6.826;2023-03-01T13:15:37;19.90;41.30
37050;DHT22;22958;51.232;6.826;2023-03-01T13:23:25;20.00;40.60
37050;DHT22;22958;51.232;6.826;2023-03-01T13:33:57;19.50;38.60
37050;DHT22;22958;51.232;6.826;2023-03-01T13:44:31;19.50;40.60
37050;DHT22;22958;51.232;6.826;2023-03-01T13:55:04;21.60;37.00
37050;DHT22;22958;51.232;6.826;2023-03-01T13:57:34;20.80;38.00
37050;DHT22;22958;51.232;6.826;2023-03-01T14:00:00;20.10;39.30
37050;DHT22;22958;51.232;6.826;2023-03-01T14:02:25;21.10;38.20
37050;DHT22;22958;51.232;6.826;2023-03-01T14:04:58;22.50;36.80
37050;DHT22;22958;51.232;6.826;2023-03-01T14:07:25;22.00;36.90
37050;DHT22;22958;51.232;6.826;2023-03-01T14:10:04;21.30;36.70
37050;DHT22;22958;51.232;6.826;2023-03-01T14:16:02;22.80;35.00
37050;DHT22;22958;51.232;6.826;2023-03-01T14:18:40;23.10;34.80
37050;DHT22;22958;51.232;6.826;2023-03-01T14:21:08;23.70;34.90
37050;DHT22;22958;51.232;6.826;2023-03-01T14:23:34;22.20;35.30
37050;DHT22;22958;51.232;6.826;2023-03-01T14:26:01;21.80;35.40
37050;DHT22;22958;51.232;6.826;2023-03-01T14:28:31;21.00;36.00
37050;DHT22;22958;51.232;6.826;2023-03-01T14:31:00;21.90;35.90
37050;DHT22;22958;51.232;6.826;2023-03-01T14:33:30;23.00;34.80
37050;DHT22;22958;51.232;6.826;2023-03-01T14:36:05;22.50;34.70
37050;DHT22;22958;51.232;6.826;2023-03-01T14:38:42;21.60;35.00
37050;DHT22;22958;51.232;6.826;2023-03-01T14:41:18;20.50;35.00
37050;DHT22;22958;51.232;6.826;2023-03-01T14:43:46;19.40;37.90
37050;DHT22;22958;51.232;6.826;2023-03-01T14:46:37;21.10;36.40
37050;DHT22;22958;51.232;6.826;2023-03-01T14:49:22;20.10;35.20
37050;DHT22;22958;51.232;6.826;2023-03-01T14:52:07;19.00;38.60
37050;DHT22;22958;51.232;6.826;2023-03-01T14:54:43;19.40;37.10
37050;DHT22;22958;51.232;6.826;2023-03-01T14:57:22;19.60;36.50
37050;DHT22;22958;51.232;6.826;2023-03-01T14:59:49;19.70;36.70
37050;DHT22;22958;51.232;6.826;2023-03-01T15:02:21;21.10;35.70
37050;DHT22;22958;51.232;6.826;2023-03-01T15:04:49;21.30;36.10
37050;DHT22;22958;51.232;6.826;2023-03-01T15:07:16;21.90;34.60
37050;DHT22;22958;51.232;6.826;2023-03-01T15:09:43;19.70;35.40
37050;DHT22;22958;51.232;6.826;2023-03-01T15:14:53;19.60;35.60
37050;DHT22;22958;51.232;6.826;2023-03-01T15:17:33;18.10;38.20
37050;DHT22;22958;51.232;6.826;2023-03-01T15:20:01;18.60;37.60
37050;DHT22;22958;51.232;6.826;2023-03-01T15:22:28;19.30;37.40
37050;DHT22;22958;51.232;6.826;2023-03-01T15:24:54;17.50;36.80
37050;DHT22;22958;51.232;6.826;2023-03-01T15:27:22;16.80;40.00
37050;DHT22;22958;51.232;6.826;2023-03-01T15:29:57;19.00;38.60
37050;DHT22;22958;51.232;6.826;2023-03-01T15:32:35;19.70;36.40
37050;DHT22;22958;51.232;6.826;2023-03-01T15:35:39;20.00;35.90
37050;DHT22;22958;51.232;6.826;2023-03-01T15:40:53;19.00;37.00
37050;DHT22;22958;51.232;6.826;2023-03-01T15:43:43;18.90;37.00
37050;DHT22;22958;51.232;6.826;2023-03-01T15:46:25;17.20;38.40
37050;DHT22;22958;51.232;6.826;2023-03-01T15:48:57;17.40;39.10
37050;DHT22;22958;51.232;6.826;2023-03-01T15:51:36;18.40;38.20
37050;DHT22;22958;51.232;6.826;2023-03-01T15:54:11;18.00;37.60
37050;DHT22;22958;51.232;6.826;2023-03-01T15:56:41;18.30;38.50
37050;DHT22;22958;51.232;6.826;2023-03-01T15:59:09;17.00;39.80
37050;DHT22;22958;51.232;6.826;2023-03-01T16:01:37;15.30;41.00
37050;DHT22;22958;51.232;6.826;2023-03-01T16:04:02;15.60;41.70
37050;DHT22;22958;51.232;6.826;2023-03-01T16:06:28;15.50;42.10
37050;DHT22;22958;51.232;6.826;2023-03-01T16:08:53;15.30;41.30
37050;DHT22;22958;51.232;6.826;2023-03-01T16:11:20;15.10;42.80
37050;DHT22;22958;51.232;6.826;2023-03-01T16:13:46;14.70;42.80
37050;DHT22;22958;51.232;6.826;2023-03-01T16:16:13;14.10;43.40
37050;DHT22;22958;51.232;6.826;2023-03-01T16:18:45;12.80;45.50
37050;DHT22;22958;51.232;6.826;2023-03-01T16:21:19;11.00;49.00
37050;DHT22;22958;51.232;6.826;2023-03-01T16:23:45;10.00;51.10
37050;DHT22;22958;51.232;6.826;2023-03-01T16:26:11;9.80;52.20
37050;DHT22;22958;51.232;6.826;2023-03-01T16:28:38;9.30;53.20
37050;DHT22;22958;51.232;6.826;2023-03-01T16:31:04;8.90;54.50
37050;DHT22;22958;51.232;6.826;2023-03-01T16:33:29;8.50;55.20
37050;DHT22;22958;51.232;6.826;2023-03-01T16:35:55;8.40;55.60
37050;DHT22;22958;51.232;6.826;2023-03-01T16:38:21;8.30;56.10
37050;DHT22;22958;51.232;6.826;2023-03-01T16:40:48;8.10;56.70
37050;DHT22;22958;51.232;6.826;2023-03-01T16:43:14;7.80;57.20
37050;DHT22;22958;51.232;6.826;2023-03-01T16:45:40;7.70;57.80
37050;DHT22;22958;51.232;6.826;2023-03-01T16:48:06;7.60;58.40
37050;DHT22;22958;51.232;6.826;2023-03-01T16:50:32;7.50;58.50
37050;DHT22;22958;51.232;6.826;2023-03-01T16:52:57;7.40;59.00
37050;DHT22;22958;51.232;6.826;2023-03-01T16:55:23;7.20;59.50
37050;DHT22;22958;51.232;6.826;2023-03-01T16:57:48;7.10;59.90
37050;DHT22;22958;51.232;6.826;2023-03-01T17:00:14;7.10;60.70
37050;DHT22;22958;51.232;6.826;2023-03-01T17:02:41;6.90;61.40
37050;DHT22;22958;51.232;6.826;2023-03-01T17:05:08;6.80;61.70
37050;DHT22;22958;51.232;6.826;2023-03-01T17:07:34;6.80;62.30
37050;DHT22;22958;51.232;6.826;2023-03-01T17:10:02;6.70;63.00
37050;DHT22;22958;51.232;6.826;2023-03-01T17:12:28;6.60;63.40
37050;DHT22;22958;51.232;6.826;2023-03-01T17:14:54;6.50;63.80
37050;DHT22;22958;51.232;6.826;2023-03-01T17:17:19;6.40;64.30
37050;DHT22;22958;51.232;6.826;2023-03-01T17:19:45;6.30;64.60
37050;DHT22;22958;51.232;6.826;2023-03-01T17:22:11;6.30;65.10